Asquith, Canada
Current Conditions -  °F | °C
As of 7:00 PM on Thursday 27 Nov 2014 (Local Time) from CYXE Reporting Station
Light Snow Light Snow  
Wind Chill: -8°   Ceiling: 1300
Heat Index: 10°   Visibility: 12mi
Dew Point:   Wind: 18mph
Humidity: 79%   Direction: 60°ENE
Pressure: 30.03"   Gusts: 25mph
Location:  52.12°N, 107.22°W
Report Text: CYXE 280100Z 06016G22KT 12SM -SN DRSN OVC013 M12/M15 A3003 RMK SC8 SLP215
Loading
Personal Weather Stations






























Interactive Weather Map New forecast layout! Learn more

10-Day Weather Forecast

Advertisements
Track Severe Weather on mobile